Terminal Aerodrome Forecast
Issued by NWS

Home | Current Version | Previous Version | Text Only | Print | Product List | Glossary On
Versions: 1 2 3 4 5 6 7 8 9 10 11 12
000
FTUS45 KABQ 180500
TAFFMN
TAF
KFMN 180528Z 1806/1906 09005KT P6SM SKC
     FM182100 18010KT P6SM SCT060
     FM190200 18005KT P6SM SKC=

USA.gov is the U.S. government's official web portal to all federal, state and local government web resources and services.